Time;durP1;ratioP1;P1;durP2;ratioP2;P2;SDS_P1;SDS_P2;PMS_P1;PMS_P2;Temp;Humidity;BMP_temperature;BMP_pressure;BME280_temperature;BME280_humidity;BME280_pressure;Samples;Min_cycle;Max_cycle;Signal;HPM_P1;HPM_P2
2022/05/15 14:30:14;;;;;;;20.00;11.60;;;;;;;23.35;38.17;99360.91;103184;1309;545104;-86
2022/05/15 14:32:50;;;;;;;82.50;65.70;;;;;;;23.36;37.67;99356.58;105097;1284;24224;-79
2022/05/15 14:35:25;;;;;;;64.90;53.00;;;;;;;23.34;37.69;99360.65;105478;1284;22607;-79
2022/05/15 14:37:56;;;;;;;9.90;4.30;;;;;;;23.36;37.97;99362.50;106519;1277;25252;-81
2022/05/15 14:40:23;;;;;;;7.90;2.20;;;;;;;23.38;37.80;99357.23;105945;1277;22559;-84
2022/05/15 14:42:50;;;;;;;7.70;1.60;;;;;;;23.34;37.85;99360.20;105569;1274;419585;-77
2022/05/15 14:45:20;;;;;;;5.90;1.40;;;;;;;23.38;38.09;99356.02;105967;1274;24214;-77
2022/05/15 14:48:14;;;;;;;;;;;;;;;;;;;;;
2022/05/15 14:50:49;;;;;;;6.80;1.30;;;;;;;23.18;37.63;99355.78;105988;1275;23955;-80
2022/05/15 14:53:20;;;;;;;6.20;2.10;;;;;;;23.19;37.41;99355.41;106151;1274;24345;-85
2022/05/15 14:58:51;;;;;;;6.30;1.30;;;;;;;23.20;37.04;99355.13;105982;1277;24213;-84
2022/05/15 15:01:19;;;;;;;4.70;1.20;;;;;;;23.19;37.15;99350.27;105964;1277;23944;-80
2022/05/15 15:03:50;;;;;;;7.20;1.20;;;;;;;23.40;37.37;99348.63;105912;1278;22559;-84
2022/05/15 15:06:28;;;;;;;6.60;1.40;;;;;;;23.57;36.98;99344.90;105899;1275;23045;-85
2022/05/15 15:08:55;;;;;;;5.40;1.20;;;;;;;23.57;37.27;99340.96;106394;1277;25524;-79
2022/05/15 15:11:33;;;;;;;6.00;1.20;;;;;;;23.76;37.15;99342.11;106148;1274;24336;-81
2022/05/15 15:14:07;;;;;;;4.50;1.30;;;;;;;24.13;36.66;99342.27;106450;1274;23907;-81
2022/05/15 15:16:55;;;;;;;6.00;1.10;;;;;;;24.57;36.42;99338.73;106181;1274;22614;-83
2022/05/15 15:19:25;;;;;;;5.90;1.50;;;;;;;24.78;36.44;99334.38;106031;1275;26615;-85
2022/05/15 15:21:57;;;;;;;7.00;1.40;;;;;;;24.69;36.31;99331.26;106330;1274;25414;-82
2022/05/15 15:24:35;;;;;;;6.80;1.60;;;;;;;24.70;35.93;99332.58;106110;1275;24296;-85
2022/05/15 15:27:02;;;;;;;7.80;1.60;;;;;;;24.73;36.09;99329.98;106105;1274;25440;-80
2022/05/15 15:29:40;;;;;;;6.30;1.50;;;;;;;24.94;36.36;99324.60;106029;1274;25513;-84
2022/05/15 15:32:16;;;;;;;7.70;1.60;;;;;;;25.36;35.50;99324.35;106388;1274;23040;-81
2022/05/15 15:34:44;;;;;;;6.70;1.60;;;;;;;25.78;35.68;99321.63;106749;1274;22592;-79
2022/05/15 15:39:57;;;;;;;8.00;1.60;;;;;;;26.59;35.28;99316.40;106022;1274;24392;-83
2022/05/15 15:42:32;;;;;;;5.80;1.50;;;;;;;26.93;35.02;99318.05;106259;1275;24217;-79
2022/05/15 15:45:05;;;;;;;5.80;1.60;;;;;;;27.24;34.95;99318.00;105954;1274;24274;-82
2022/05/15 15:47:32;;;;;;;6.30;1.40;;;;;;;27.50;34.91;99319.02;105829;1275;22670;-78
2022/05/15 15:49:58;;;;;;;5.90;1.80;;;;;;;27.80;34.72;99311.48;105974;1274;22579;-79
2022/05/15 15:52:29;;;;;;;6.10;1.70;;;;;;;28.10;34.92;99311.86;106346;1277;22547;-80
2022/05/15 15:55:01;;;;;;;5.80;1.70;;;;;;;28.41;34.29;99311.64;106107;1274;24251;-85
2022/05/15 15:57:30;;;;;;;4.30;1.40;;;;;;;28.33;34.16;99306.38;106258;1274;25579;-81
2022/05/15 16:00:04;;;;;;;6.30;1.90;;;;;;;28.36;34.49;99301.86;106238;1274;25287;-80
2022/05/15 16:02:32;;;;;;;5.40;1.70;;;;;;;28.54;34.21;99302.21;106153;1274;22596;-77
2022/05/15 16:05:02;;;;;;;6.90;2.00;;;;;;;28.76;34.58;99298.48;106181;1274;22628;-80
2022/05/15 16:07:29;;;;;;;4.20;1.10;;;;;;;29.14;34.17;99299.10;106023;1274;25216;-78
2022/05/15 16:09:56;;;;;;;6.20;1.30;;;;;;;28.44;33.94;99298.73;106101;1274;22534;-85
2022/05/15 16:12:28;;;;;;;5.30;1.10;;;;;;;27.34;34.58;99301.15;106221;1274;22541;-85
2022/05/15 16:14:58;;;;;;;6.40;1.30;;;;;;;26.41;34.50;99298.63;106090;1271;24332;-80
2022/05/15 16:17:26;;;;;;;4.10;1.20;;;;;;;25.74;34.65;99301.92;106258;1274;22546;-77
2022/05/15 16:19:52;;;;;;;5.50;1.40;;;;;;;25.01;34.62;99305.94;106185;1272;22614;-79
2022/05/15 16:22:23;;;;;;;6.10;1.40;;;;;;;24.30;34.63;99312.45;106124;1271;22089;-83
2022/05/15 16:24:57;;;;;;;6.70;1.40;;;;;;;23.70;34.73;99312.84;106062;1271;22969;-79
2022/05/15 16:27:39;;;;;;;7.20;1.20;;;;;;;23.25;34.86;99316.27;106724;1274;22640;-81
2022/05/15 16:30:09;;;;;;;6.30;1.40;;;;;;;22.78;34.57;99312.88;105951;1277;24276;-85
2022/05/15 16:32:46;;;;;;;9.90;1.70;;;;;;;22.42;35.15;99309.89;106299;1274;24278;-86
2022/05/15 16:35:29;;;;;;;6.10;1.20;;;;;;;22.18;35.00;99311.64;106231;1272;24059;-79
2022/05/15 16:38:00;;;;;;;5.90;1.20;;;;;;;21.84;34.92;99314.13;106247;1271;25413;-79
2022/05/15 16:40:33;;;;;;;4.60;1.10;;;;;;;21.59;34.96;99312.17;106295;1274;25343;-78
2022/05/15 16:43:00;;;;;;;7.70;1.60;;;;;;;21.47;35.21;99312.69;106007;1275;22767;-81
2022/05/15 16:45:29;;;;;;;6.40;1.50;;;;;;;21.43;35.32;99310.48;106522;1274;22602;-83
2022/05/15 16:48:02;;;;;;;14.00;1.30;;;;;;;21.27;35.13;99309.64;105957;1274;22655;-82
2022/05/15 16:50:29;;;;;;;5.00;1.10;;;;;;;21.14;35.35;99313.48;105956;1275;22553;-81
2022/05/15 16:52:57;;;;;;;7.70;1.50;;;;;;;21.03;35.15;99315.11;106033;1274;22561;-82
2022/05/15 16:55:29;;;;;;;7.60;1.60;;;;;;;20.82;35.09;99311.98;106077;1271;22531;-78
2022/05/15 16:57:59;;;;;;;5.20;1.30;;;;;;;20.69;35.24;99310.03;106244;1274;22576;-81
2022/05/15 17:00:26;;;;;;;5.60;1.20;;;;;;;20.58;35.37;99311.92;106464;1274;22669;-82
2022/05/15 17:02:54;;;;;;;6.00;1.00;;;;;;;20.46;35.37;99310.82;106512;1272;24330;-78
2022/05/15 17:05:28;;;;;;;5.70;1.10;;;;;;;20.36;35.40;99309.21;105980;1277;25231;-78
2022/05/15 17:08:05;;;;;;;7.00;1.10;;;;;;;20.24;35.41;99310.21;106285;1271;23147;-78
2022/05/15 17:10:37;;;;;;;6.80;1.10;;;;;;;20.16;35.45;99311.55;106164;1272;22676;-85
2022/05/15 17:13:05;;;;;;;8.10;1.20;;;;;;;20.11;35.59;99311.77;106317;1274;25539;-82
2022/05/15 17:15:42;;;;;;;6.00;1.20;;;;;;;20.05;35.66;99310.84;106302;1274;25345;-79
2022/05/15 17:18:12;;;;;;;7.00;1.80;;;;;;;19.99;35.65;99310.92;105955;1274;24183;-80
2022/05/15 17:20:55;;;;;;;9.40;3.00;;;;;;;19.93;36.08;99309.72;106312;1271;24281;-81
2022/05/15 17:23:26;;;;;;;6.10;1.70;;;;;;;19.86;35.87;99311.25;106691;1274;24247;-82
2022/05/15 17:25:57;;;;;;;6.20;1.30;;;;;;;19.78;36.15;99316.64;106041;1274;22535;-82
2022/05/15 17:34:12;;;;;;;8.70;1.30;;;;;;;19.45;36.65;99313.02;106219;1274;22544;-77
2022/05/15 17:36:44;;;;;;;7.40;2.00;;;;;;;19.35;36.62;99311.20;106718;1274;22537;-78
2022/05/15 17:39:22;;;;;;;6.80;1.10;;;;;;;19.22;36.23;99313.08;106050;1271;25473;-83
2022/05/15 17:41:55;;;;;;;6.30;1.20;;;;;;;19.08;36.25;99314.59;106338;1271;22547;-79
2022/05/15 17:44:32;;;;;;;7.70;1.70;;;;;;;18.96;36.55;99313.79;106313;1272;22833;-80
2022/05/15 17:46:59;;;;;;;7.40;1.60;;;;;;;18.88;36.39;99314.98;106248;1274;22549;-79
2022/05/15 17:49:27;;;;;;;10.50;1.60;;;;;;;18.80;36.61;99317.45;105951;1271;25238;-79
2022/05/15 17:52:01;;;;;;;7.70;1.60;;;;;;;18.69;36.81;99323.03;106132;1272;23696;-78
2022/05/15 17:54:28;;;;;;;10.20;1.50;;;;;;;18.58;36.87;99320.36;105922;1275;22565;-78
2022/05/15 17:57:05;;;;;;;7.90;1.70;;;;;;;18.45;36.82;99322.72;106065;1274;25362;-78
2022/05/15 17:59:32;;;;;;;10.30;2.20;;;;;;;18.31;36.86;99326.11;106007;1274;24253;-81
2022/05/15 18:02:17;;;;;;;8.90;2.10;;;;;;;18.11;36.86;99327.56;106070;1272;22728;-79
2022/05/15 18:04:46;;;;;;;8.40;1.90;;;;;;;17.96;36.95;99325.98;106174;1272;24188;-84
2022/05/15 18:07:19;;;;;;;9.40;2.10;;;;;;;17.82;36.99;99320.88;106120;1271;22564;-76
2022/05/15 18:10:04;;;;;;;7.10;2.10;;;;;;;17.74;37.12;99325.46;105942;1277;25238;-80
2022/05/15 18:12:33;;;;;;;7.10;1.90;;;;;;;17.61;37.25;99327.13;106008;1274;22561;-79
2022/05/15 18:15:00;;;;;;;8.40;1.60;;;;;;;17.49;37.43;99326.05;106363;1271;25250;-79
2022/05/15 18:17:39;;;;;;;6.80;1.50;;;;;;;17.40;37.47;99328.19;106082;1272;22679;-77
2022/05/15 18:20:12;;;;;;;6.70;1.60;;;;;;;17.30;37.60;99332.60;106271;1271;22835;-81
2022/05/15 18:22:57;;;;;;;7.10;1.50;;;;;;;17.17;37.65;99332.59;106609;1271;25305;-80
2022/05/15 18:26:04;;;;;;;9.30;1.60;;;;;;;17.03;37.73;99333.36;106239;1274;22641;-79
2022/05/15 18:28:32;;;;;;;7.00;1.50;;;;;;;16.86;37.93;99336.58;106299;1274;22554;-77
2022/05/15 18:31:04;;;;;;;10.00;1.60;;;;;;;16.74;38.02;99335.87;106150;1274;25147;-79
2022/05/15 18:33:38;;;;;;;9.00;1.80;;;;;;;16.61;38.18;99337.38;106345;1274;25483;-80
2022/05/15 18:36:09;;;;;;;8.40;1.80;;;;;;;16.49;38.34;99336.75;105955;1274;24283;-84
2022/05/15 18:38:39;;;;;;;7.80;1.80;;;;;;;16.37;38.42;99339.48;105978;1275;24283;-78
2022/05/15 18:41:58;;;;;;;9.60;2.20;;;;;;;16.22;38.65;99340.10;106200;1274;22631;-81
2022/05/15 18:44:29;;;;;;;7.20;2.00;;;;;;;16.05;38.94;99340.81;106229;1274;25502;-84
2022/05/15 18:47:13;;;;;;;9.30;2.40;;;;;;;15.93;39.22;99344.94;105968;1274;24274;-84
2022/05/15 18:55:57;;;;;;;8.80;2.10;;;;;;;15.53;39.61;99352.02;106219;1274;22642;-80
2022/05/15 18:58:31;;;;;;;7.00;2.10;;;;;;;15.42;39.77;99355.48;106191;1274;25774;-84
2022/05/15 19:01:31;;;;;;;8.80;2.30;;;;;;;15.32;39.78;99355.80;106168;1274;25376;-78
2022/05/15 19:03:59;;;;;;;8.00;2.20;;;;;;;15.25;39.79;99360.58;106042;1274;23938;-79
2022/05/15 19:06:36;;;;;;;8.00;2.00;;;;;;;15.19;39.84;99363.39;106140;1274;24411;-85
2022/05/15 19:09:23;;;;;;;8.70;2.90;;;;;;;15.12;40.42;99369.56;106258;1274;23062;-80
2022/05/15 19:11:57;;;;;;;7.50;2.40;;;;;;;14.97;40.47;99368.95;105990;1274;23405;-82
2022/05/15 19:14:33;;;;;;;11.50;2.50;;;;;;;14.83;40.66;99369.86;105986;1274;22977;-78
2022/05/15 19:17:04;;;;;;;8.30;2.10;;;;;;;14.72;40.87;99371.19;106039;1271;22624;-83
2022/05/15 19:19:34;;;;;;;8.80;2.10;;;;;;;14.63;40.97;99370.91;106144;1271;25618;-78
2022/05/15 19:22:06;;;;;;;10.70;2.00;;;;;;;14.55;40.94;99372.65;106585;1271;22678;-78
2022/05/15 19:24:36;;;;;;;13.60;2.30;;;;;;;14.48;41.15;99374.65;106139;1273;22607;-78
2022/05/15 19:27:04;;;;;;;9.30;2.20;;;;;;;14.41;41.26;99380.41;106158;1271;25579;-76
2022/05/15 19:29:44;;;;;;;9.20;2.40;;;;;;;14.32;41.51;99377.02;106261;1271;22814;-81
2022/05/15 19:32:32;;;;;;;10.60;3.30;;;;;;;14.23;41.60;99382.39;106077;1274;23230;-77
2022/05/15 19:35:01;;;;;;;12.10;3.20;;;;;;;14.18;41.80;99382.36;106020;1274;24283;-82
2022/05/15 19:37:40;;;;;;;11.80;3.70;;;;;;;14.12;41.91;99381.77;106263;1274;24241;-84
2022/05/15 19:40:14;;;;;;;12.20;4.00;;;;;;;14.08;41.94;99380.14;106042;1274;22622;-81
2022/05/15 19:42:58;;;;;;;12.80;4.70;;;;;;;14.07;42.06;99381.42;106340;1271;24395;-79
2022/05/15 19:45:30;;;;;;;11.00;3.90;;;;;;;14.04;42.03;99380.41;106165;1274;24202;-77
2022/05/15 19:48:27;;;;;;;10.60;3.90;;;;;;;14.00;42.28;99384.99;105896;1274;22560;-83
2022/05/15 19:51:28;;;;;;;13.00;3.80;;;;;;;13.97;42.38;99389.02;106302;1271;22771;-82
2022/05/15 19:54:04;;;;;;;9.70;3.10;;;;;;;13.93;42.51;99389.91;106340;1271;22609;-78
2022/05/15 19:56:41;;;;;;;10.10;2.90;;;;;;;13.90;42.50;99387.62;106323;1271;25345;-77
2022/05/15 19:59:19;;;;;;;10.20;2.90;;;;;;;13.85;42.42;99388.55;106181;1271;24236;-86
2022/05/15 20:01:56;;;;;;;8.40;2.50;;;;;;;13.79;42.61;99391.36;106500;1271;24183;-79
2022/05/15 20:11:30;;;;;;;8.80;1.90;;;;;;;13.71;42.89;99394.48;106297;1271;25235;-78
2022/05/15 20:14:21;;;;;;;8.60;2.30;;;;;;;13.68;42.84;99397.63;106338;1271;22601;-78
2022/05/15 20:16:54;;;;;;;9.20;2.40;;;;;;;13.60;42.97;99397.88;106331;1271;24313;-77
2022/05/15 20:19:22;;;;;;;6.90;2.00;;;;;;;13.51;42.97;99398.45;106441;1271;22873;-77
2022/05/15 20:21:49;;;;;;;9.40;1.90;;;;;;;13.41;43.14;99405.49;105955;1274;22533;-77
2022/05/15 20:24:17;;;;;;;8.40;2.10;;;;;;;13.33;43.14;99401.63;105820;1274;22693;-80
2022/05/15 20:26:47;;;;;;;7.70;2.20;;;;;;;13.28;43.18;99406.48;106125;1274;25289;-79
2022/05/15 20:29:20;;;;;;;8.50;1.90;;;;;;;13.20;43.45;99408.87;105953;1271;25407;-84
2022/05/15 20:31:54;;;;;;;6.70;2.00;;;;;;;13.13;43.57;99410.45;106336;1271;25305;-79
2022/05/15 20:34:31;;;;;;;7.70;2.30;;;;;;;13.08;43.70;99408.73;106254;1271;22653;-85
2022/05/15 20:37:07;;;;;;;8.30;2.10;;;;;;;13.02;43.75;99407.95;106251;1271;22606;-84
2022/05/15 20:39:42;;;;;;;8.70;1.80;;;;;;;12.95;43.89;99405.08;106532;1271;25229;-79
2022/05/15 20:42:25;;;;;;;6.50;1.60;;;;;;;12.89;43.85;99403.75;106171;1271;25270;-78
2022/05/15 20:45:04;;;;;;;6.00;1.60;;;;;;;12.83;43.90;99401.17;106241;1271;22657;-77
2022/05/15 20:48:11;;;;;;;6.50;1.70;;;;;;;12.78;44.11;99406.02;106310;1271;24218;-80
2022/05/15 20:50:59;;;;;;;7.00;1.60;;;;;;;12.69;44.07;99403.63;106299;1274;22541;-84
2022/05/15 20:53:52;;;;;;;6.20;1.80;;;;;;;12.64;44.13;99407.96;106248;1274;23910;-79
2022/05/15 20:56:52;;;;;;;8.50;2.00;;;;;;;12.55;44.34;99406.35;106351;1274;22611;-82
2022/05/15 20:59:48;;;;;;;10.10;2.20;;;;;;;12.44;44.61;99406.27;106543;1274;25232;-79
2022/05/15 21:02:37;;;;;;;8.90;2.30;;;;;;;12.32;44.99;99405.34;106011;1274;25357;-80
2022/05/15 21:05:35;;;;;;;8.30;2.20;;;;;;;12.23;45.12;99405.52;106269;1274;23897;-77
2022/05/15 21:08:08;;;;;;;7.60;1.90;;;;;;;12.14;44.97;99409.16;106258;1274;22525;-82
2022/05/15 21:10:57;;;;;;;8.80;2.00;;;;;;;12.09;44.83;99410.59;105942;1274;22576;-83
2022/05/15 21:13:44;;;;;;;7.80;1.90;;;;;;;12.05;44.88;99409.09;106282;1274;23310;-80
2022/05/15 21:16:14;;;;;;;9.40;2.10;;;;;;;12.02;45.12;99408.65;106288;1274;23006;-80
2022/05/15 21:19:05;;;;;;;11.50;2.60;;;;;;;11.97;45.31;99403.30;106567;1271;23263;-79
2022/05/15 21:21:44;;;;;;;10.50;2.90;;;;;;;11.91;45.56;99400.33;106310;1271;24282;-79
2022/05/15 21:24:12;;;;;;;9.00;2.30;;;;;;;11.84;45.58;99399.40;106233;1271;22490;-81
2022/05/15 21:26:45;;;;;;;8.20;2.20;;;;;;;11.80;45.76;99401.63;106242;1274;22550;-84
2022/05/15 21:29:32;;;;;;;8.20;2.70;;;;;;;11.82;45.92;99398.45;106015;1274;22545;-82
2022/05/15 21:32:46;;;;;;;;;;;;;;;;;;;;;
2022/05/15 21:36:06;;;;;;;12.50;2.80;;;;;;;11.82;46.17;99398.66;105945;1271;22838;-77
2022/05/15 21:45:39;;;;;;;15.60;3.60;;;;;;;11.68;46.58;99393.06;105764;1279;22541;-80
2022/05/15 21:48:45;;;;;;;;;;;;;;;;;;;;;
2022/05/15 21:52:32;;;;;;;;;;;;;;;;;;;;;
2022/05/15 21:55:41;;;;;;;12.80;4.30;;;;;;;11.33;47.55;99391.24;105763;1280;22586;-78
2022/05/15 21:58:35;;;;;;;16.20;4.80;;;;;;;11.20;47.97;99389.31;105689;1280;24296;-86
2022/05/15 22:05:05;;;;;;;10.90;4.10;;;;;;;11.05;47.88;99391.55;104269;1293;22585;-84
2022/05/15 22:08:07;;;;;;;;;;;;;;;;;;;;;
2022/05/15 22:11:10;;;;;;;15.20;3.40;;;;;;;11.18;48.09;99394.73;104201;1294;24297;-83
2022/05/15 22:14:04;;;;;;;15.50;3.90;;;;;;;11.17;48.29;99392.87;104376;1294;24481;-81
2022/05/15 22:17:23;;;;;;;;;;;;;;;;;;;;;
2022/05/15 22:20:23;;;;;;;15.70;4.20;;;;;;;10.95;48.63;99394.94;104427;1294;22609;-80
2022/05/15 22:23:43;;;;;;;;;;;;;;;;;;;;;
2022/05/15 22:27:06;;;;;;;;;;;;;;;;;;;;;
2022/05/15 22:30:06;;;;;;;10.40;2.60;;;;;;;10.79;48.68;99400.05;104409;1291;22705;-84
2022/05/15 22:33:24;;;;;;;12.30;2.80;;;;;;;10.75;48.99;99394.70;104380;1291;25498;-79
2022/05/15 22:36:41;;;;;;;;;;;;;;;;;;;;;
2022/05/15 22:40:18;;;;;;;;;;;;;;;;;;;;;
2022/05/15 22:43:30;;;;;;;;;;;;;;;;;;;;;
2022/05/15 22:46:22;;;;;;;;;;;;;;;;;;;;;
2022/05/15 22:49:41;;;;;;;42.00;12.20;;;;;;;10.65;49.33;99394.25;105714;1280;24249;-80
2022/05/15 22:52:32;;;;;;;43.30;9.40;;;;;;;10.56;49.87;99400.08;105636;1279;22550;-85
2022/05/15 22:55:09;;;;;;;27.70;5.10;;;;;;;10.46;49.81;99391.61;106193;1280;22664;-83
2022/05/15 22:57:59;;;;;;;26.80;4.90;;;;;;;10.41;49.71;99394.27;105731;1280;22573;-85
2022/05/15 23:00:32;;;;;;;30.80;5.90;;;;;;;10.41;49.80;99393.42;105623;1279;24268;-84
2022/05/15 23:04:12;;;;;;;32.30;6.50;;;;;;;10.37;49.60;99391.50;105985;1271;22557;-86
2022/05/15 23:10:30;;;;;;;36.90;8.10;;;;;;;10.25;50.08;99389.63;106411;1271;24203;-84
2022/05/15 23:13:43;;;;;;;28.60;6.00;;;;;;;10.16;50.33;99387.20;106754;1271;25198;-80
2022/05/15 23:16:29;;;;;;;20.30;4.70;;;;;;;10.09;50.42;99386.77;106349;1274;22716;-80
2022/05/15 23:19:30;;;;;;;14.10;4.10;;;;;;;10.06;50.68;99386.95;106108;1274;22691;-85
2022/05/15 23:22:24;;;;;;;;;;;;;;;;;;;;;
2022/05/15 23:25:29;;;;;;;23.20;3.90;;;;;;;10.16;51.12;99386.99;106355;1273;22531;-82
2022/05/15 23:28:18;;;;;;;12.40;3.10;;;;;;;10.15;50.88;99383.14;106054;1274;22534;-85
2022/05/15 23:31:19;;;;;;;;;;;;;;;;;;;;;
2022/05/15 23:33:48;;;;;;;12.60;2.60;;;;;;;10.13;51.13;99388.63;106381;1274;22566;-85
2022/05/15 23:36:46;;;;;;;;;;;;;;;;;;;;;
2022/05/15 23:39:48;;;;;;;11.10;2.30;;;;;;;10.03;51.06;99382.15;106318;1274;23271;-79
2022/05/15 23:42:38;;;;;;;;;;;;;;;;;;;;;
2022/05/15 23:46:02;;;;;;;12.90;2.90;;;;;;;9.87;51.42;99384.40;106271;1273;24289;-80
2022/05/15 23:49:03;;;;;;;;;;;;;;;;;;;;;
2022/05/15 23:51:51;;;;;;;12.30;3.50;;;;;;;9.79;51.53;99393.30;106675;1274;22828;-82
2022/05/15 23:54:40;;;;;;;12.10;2.90;;;;;;;9.75;51.74;99391.92;106114;1274;25307;-81
2022/05/15 23:57:18;;;;;;;11.80;3.20;;;;;;;9.75;52.09;99397.45;106042;1274;25251;-80
